Time;durP1;ratioP1;P1;durP2;ratioP2;P2;SDS_P1;SDS_P2;PMS_P1;PMS_P2;Temp;Humidity;BMP_temperature;BMP_pressure;BME280_temperature;BME280_humidity;BME280_pressure;Samples;Min_cycle;Max_cycle;Signal;HPM_P1;HPM_P2
2023/03/07 00:01:56;;;;;;;6.85;3.65;;;;;;;3.79;100.00;99974.75;5073592;28;20036;-71
2023/03/07 00:04:22;;;;;;;12.15;4.05;;;;;;;3.80;100.00;99968.53;5073581;28;20107;-72
2023/03/07 00:06:47;;;;;;;9.93;3.97;;;;;;;3.81;100.00;99974.66;5074056;28;20052;-72
2023/03/07 00:09:13;;;;;;;13.40;4.13;;;;;;;3.81;100.00;99972.84;5073452;28;20043;-72
2023/03/07 00:11:38;;;;;;;13.45;4.18;;;;;;;3.80;100.00;99980.84;5073621;28;20051;-71
2023/03/07 00:14:07;;;;;;;19.75;4.20;;;;;;;3.76;100.00;99967.06;5073220;28;20040;-72
2023/03/07 00:16:33;;;;;;;17.27;3.95;;;;;;;3.76;100.00;99974.97;5073220;28;20040;-72
2023/03/07 00:18:59;;;;;;;8.27;3.58;;;;;;;3.74;100.00;99966.38;5073375;28;20480;-71
2023/03/07 00:21:30;;;;;;;4.90;3.25;;;;;;;3.71;100.00;99975.31;5073121;28;20495;-71
2023/03/07 00:23:55;;;;;;;7.97;3.90;;;;;;;3.74;100.00;99966.38;5073776;28;20033;-72
2023/03/07 00:26:22;;;;;;;12.90;3.60;;;;;;;3.75;100.00;99972.47;5073503;28;20342;-71
2023/03/07 00:28:50;;;;;;;8.63;3.40;;;;;;;3.75;100.00;99965.41;5055235;28;20029;-71
2023/03/07 00:31:17;;;;;;;14.82;3.65;;;;;;;3.77;100.00;99967.94;5072692;28;20064;-71
2023/03/07 00:33:43;;;;;;;9.48;3.20;;;;;;;3.74;100.00;99971.63;5072538;28;20074;-71
2023/03/07 00:36:15;;;;;;;12.80;3.38;;;;;;;3.75;100.00;99967.19;5072881;28;20037;-71
2023/03/07 00:38:41;;;;;;;16.65;3.63;;;;;;;3.78;100.00;99962.56;5073624;28;20048;-71
2023/03/07 00:41:18;;;;;;;10.65;3.22;;;;;;;3.76;100.00;99961.81;5054944;28;20093;-71
2023/03/07 00:43:45;;;;;;;7.60;2.80;;;;;;;3.80;100.00;99965.06;5073027;28;20115;-71
2023/03/07 00:46:12;;;;;;;11.68;2.90;;;;;;;3.80;100.00;99958.00;5072848;28;20033;-71
2023/03/07 00:48:38;;;;;;;10.07;2.50;;;;;;;3.74;100.00;99961.09;5073461;28;20021;-71
2023/03/07 00:51:06;;;;;;;6.30;2.45;;;;;;;3.65;100.00;99956.53;5073013;28;20037;-71
2023/03/07 00:53:32;;;;;;;8.60;2.30;;;;;;;3.58;100.00;99950.06;5073556;28;20024;-72
2023/03/07 00:56:12;;;;;;;8.48;2.25;;;;;;;3.51;100.00;99955.78;5072608;28;20025;-72
2023/03/07 00:58:38;;;;;;;5.55;1.98;;;;;;;3.47;100.00;99948.25;5073597;28;20036;-71
2023/03/07 01:01:05;;;;;;;9.75;2.10;;;;;;;3.41;100.00;99952.16;5072961;28;20385;-71
2023/03/07 01:03:31;;;;;;;11.27;2.45;;;;;;;3.37;100.00;99948.09;5073352;28;20349;-71
2023/03/07 01:06:01;;;;;;;11.63;1.98;;;;;;;3.34;100.00;99946.53;5071664;28;20052;-71
2023/03/07 01:08:27;;;;;;;11.85;2.10;;;;;;;3.33;100.00;99951.91;5054904;28;20497;-71
2023/03/07 01:10:58;;;;;;;8.68;2.00;;;;;;;3.32;100.00;99944.97;5072760;28;20056;-72
2023/03/07 01:13:23;;;;;;;8.75;1.63;;;;;;;3.36;100.00;99949.06;5073329;28;20330;-71
2023/03/07 01:15:48;;;;;;;13.88;1.92;;;;;;;3.34;100.00;99950.94;5072727;28;20031;-71
2023/03/07 01:18:14;;;;;;;14.77;2.15;;;;;;;3.33;100.00;99944.03;5072736;28;20102;-71
2023/03/07 01:20:39;;;;;;;9.40;1.50;;;;;;;3.31;100.00;99932.78;5054568;28;20043;-71
2023/03/07 01:23:05;;;;;;;8.95;1.80;;;;;;;3.26;100.00;99934.91;5072477;28;20060;-72
2023/03/07 01:25:31;;;;;;;10.80;1.20;;;;;;;3.23;100.00;99937.78;5072568;28;20456;-71
2023/03/07 01:27:56;;;;;;;11.50;2.42;;;;;;;3.20;100.00;99932.75;5072925;28;20068;-71
2023/03/07 01:30:23;;;;;;;5.32;1.30;;;;;;;3.20;100.00;99930.13;5072442;28;20032;-71
2023/03/07 01:32:55;;;;;;;10.25;1.27;;;;;;;3.22;100.00;99922.94;5072326;28;20499;-72
2023/03/07 01:35:21;;;;;;;11.52;1.95;;;;;;;3.26;100.00;99924.41;5072549;28;20078;-71
2023/03/07 01:37:48;;;;;;;11.25;1.45;;;;;;;3.29;100.00;99925.00;5073626;28;20037;-71
2023/03/07 01:40:13;;;;;;;12.10;1.40;;;;;;;3.31;100.00;99923.09;5072286;28;20039;-72
2023/03/07 01:42:39;;;;;;;18.50;1.83;;;;;;;3.32;100.00;99921.31;5054516;28;20040;-71
2023/03/07 01:45:04;;;;;;;7.57;1.73;;;;;;;3.32;100.00;99918.69;5075704;28;20036;-72
2023/03/07 01:47:30;;;;;;;10.82;2.15;;;;;;;3.32;100.00;99922.13;5076474;28;20067;-71
2023/03/07 01:49:59;;;;;;;13.82;2.20;;;;;;;3.32;100.00;99914.25;5076200;28;20465;-71
2023/03/07 01:52:31;;;;;;;16.77;2.08;;;;;;;3.32;100.00;99909.00;5076306;28;20037;-72
2023/03/07 01:55:28;;;;;;;10.98;2.50;;;;;;;3.34;100.00;99900.97;5076650;28;20028;-71
2023/03/07 01:57:56;;;;;;;9.52;2.35;;;;;;;3.36;100.00;99891.22;5056005;28;20114;-71
2023/03/07 02:00:27;;;;;;;11.90;2.47;;;;;;;3.38;100.00;99898.97;5075840;28;20452;-71
2023/03/07 02:03:11;;;;;;;11.23;2.00;;;;;;;3.34;100.00;99896.59;5076043;28;20488;-71
2023/03/07 02:05:46;;;;;;;11.15;2.30;;;;;;;3.35;100.00;99894.78;5076316;28;20025;-71
2023/03/07 02:08:13;;;;;;;8.70;1.85;;;;;;;3.37;100.00;99887.59;5076176;28;20041;-71
2023/03/07 02:10:40;;;;;;;10.52;2.30;;;;;;;3.38;100.00;99893.72;5075712;28;20071;-72
2023/03/07 02:13:06;;;;;;;11.98;2.53;;;;;;;3.38;100.00;99896.34;5075714;28;20033;-71
2023/03/07 02:15:35;;;;;;;9.07;2.58;;;;;;;3.39;100.00;99895.38;5075734;28;20229;-72
2023/03/07 02:18:01;;;;;;;13.60;2.67;;;;;;;3.37;100.00;99884.97;5075631;28;20461;-72
2023/03/07 02:20:47;;;;;;;8.60;2.10;;;;;;;3.38;100.00;99883.19;5075524;28;20031;-71
2023/03/07 02:23:26;;;;;;;6.82;2.50;;;;;;;3.37;100.00;99879.72;5075377;28;20074;-72
2023/03/07 02:25:58;;;;;;;10.07;2.50;;;;;;;3.33;100.00;99886.19;5057532;28;20024;-71
2023/03/07 02:28:24;;;;;;;12.82;3.40;;;;;;;3.33;100.00;99878.28;5057961;28;20116;-71
2023/03/07 02:30:58;;;;;;;10.85;2.65;;;;;;;3.35;100.00;99879.00;5075353;28;20033;-73
2023/03/07 02:33:24;;;;;;;11.98;3.33;;;;;;;3.37;100.00;99879.72;5075661;28;20107;-70
2023/03/07 02:35:56;;;;;;;8.70;2.53;;;;;;;3.38;100.00;99876.13;5075302;28;20087;-71
2023/03/07 02:38:23;;;;;;;7.45;2.88;;;;;;;3.38;100.00;99865.63;5075075;28;20029;-71
2023/03/07 02:40:52;;;;;;;10.27;2.58;;;;;;;3.37;100.00;99868.38;5075270;28;20040;-71
2023/03/07 02:43:19;;;;;;;9.65;3.40;;;;;;;3.37;100.00;99866.56;5075289;28;20021;-71
2023/03/07 02:45:45;;;;;;;16.40;2.88;;;;;;;3.33;100.00;99860.72;5075278;28;20036;-72
2023/03/07 02:48:10;;;;;;;8.88;2.72;;;;;;;3.31;100.00;99862.63;5075107;28;20035;-71
2023/03/07 02:50:36;;;;;;;10.55;2.90;;;;;;;3.29;100.00;99861.06;5075665;28;20043;-72
2023/03/07 02:53:01;;;;;;;11.98;2.80;;;;;;;3.26;100.00;99862.13;5057041;28;20025;-72
2023/03/07 02:55:26;;;;;;;9.15;2.80;;;;;;;3.30;100.00;99860.09;5073453;28;20163;-71
2023/03/07 02:57:52;;;;;;;6.38;2.53;;;;;;;3.29;100.00;99859.25;5074930;28;20060;-71
2023/03/07 03:00:18;;;;;;;9.73;3.13;;;;;;;3.30;100.00;99865.34;5075333;28;20028;-72
2023/03/07 03:02:44;;;;;;;16.02;3.13;;;;;;;3.30;100.00;99852.19;5074711;28;20032;-72
2023/03/07 03:05:09;;;;;;;6.70;2.47;;;;;;;3.25;100.00;99844.66;5074535;28;20423;-72
2023/03/07 03:07:34;;;;;;;9.50;2.80;;;;;;;3.26;100.00;99848.16;5074244;28;20086;-71
2023/03/07 03:10:00;;;;;;;8.05;2.92;;;;;;;3.29;100.00;99840.84;5074648;28;20116;-71
2023/03/07 03:12:25;;;;;;;8.65;3.17;;;;;;;3.31;100.00;99838.97;5074701;28;20433;-71
2023/03/07 03:14:50;;;;;;;7.43;2.92;;;;;;;3.30;100.00;99839.06;5074263;28;20527;-71
2023/03/07 03:17:16;;;;;;;8.93;2.95;;;;;;;3.34;100.00;99849.25;5074739;28;20040;-71
2023/03/07 03:19:41;;;;;;;10.48;2.88;;;;;;;3.35;100.00;99839.56;5074380;28;20515;-71
2023/03/07 03:22:06;;;;;;;10.93;3.05;;;;;;;3.34;100.00;99838.72;5074449;28;20545;-71
2023/03/07 03:24:32;;;;;;;3.28;2.55;;;;;;;3.32;100.00;99842.44;5074339;28;20116;-71
2023/03/07 03:26:57;;;;;;;11.60;2.70;;;;;;;3.28;100.00;99847.06;5074629;28;20032;-71
2023/03/07 03:29:24;;;;;;;6.78;1.90;;;;;;;3.14;100.00;99834.16;5074306;28;20029;-71
2023/03/07 03:31:49;;;;;;;5.43;1.75;;;;;;;2.95;100.00;99850.44;5073797;28;20392;-70
2023/03/07 03:34:15;;;;;;;9.05;1.65;;;;;;;2.76;100.00;99840.44;5074216;28;20041;-71
2023/03/07 03:36:40;;;;;;;7.38;1.52;;;;;;;2.62;100.00;99838.84;5074070;28;20115;-71
2023/03/07 03:39:09;;;;;;;7.88;1.67;;;;;;;2.54;100.00;99842.03;5073858;28;20072;-70
2023/03/07 03:41:36;;;;;;;3.65;1.38;;;;;;;2.46;100.00;99841.75;5073574;28;20039;-71
2023/03/07 03:44:01;;;;;;;5.22;1.70;;;;;;;2.41;100.00;99836.84;5073964;28;20111;-70
2023/03/07 03:46:26;;;;;;;7.68;1.00;;;;;;;2.39;100.00;99833.50;5073751;28;20191;-71
2023/03/07 03:48:53;;;;;;;5.53;0.93;;;;;;;2.37;100.00;99838.00;5073917;28;20036;-70
2023/03/07 03:51:19;;;;;;;5.22;1.50;;;;;;;2.28;100.00;99826.41;5073917;28;20040;-71
2023/03/07 03:53:45;;;;;;;8.85;1.60;;;;;;;2.27;100.00;99829.13;5073815;28;20430;-71
2023/03/07 03:56:16;;;;;;;8.73;1.50;;;;;;;2.25;100.00;99836.25;5073782;28;20051;-71
2023/03/07 03:58:41;;;;;;;9.50;1.27;;;;;;;2.26;100.00;99836.16;5073941;28;20024;-72
2023/03/07 04:01:10;;;;;;;12.30;1.75;;;;;;;2.27;100.00;99835.22;5073625;28;20490;-72
2023/03/07 04:03:38;;;;;;;4.68;0.95;;;;;;;2.28;100.00;99828.16;5073626;28;20020;-71
2023/03/07 04:06:06;;;;;;;5.30;1.17;;;;;;;2.23;100.00;99820.63;5073919;28;20020;-71
2023/03/07 04:08:33;;;;;;;12.95;2.10;;;;;;;2.19;100.00;99828.84;5073384;28;20054;-72
2023/03/07 04:10:59;;;;;;;10.73;1.30;;;;;;;2.18;100.00;99832.41;5073471;28;20124;-72
2023/03/07 04:13:24;;;;;;;5.55;1.05;;;;;;;2.15;100.00;99832.63;5073782;28;20060;-71
2023/03/07 04:15:51;;;;;;;9.85;1.77;;;;;;;2.14;100.00;99830.97;5073918;28;20033;-71
2023/03/07 04:18:17;;;;;;;6.47;1.33;;;;;;;2.10;100.00;99827.69;5073418;28;20036;-71
2023/03/07 04:20:43;;;;;;;8.65;1.42;;;;;;;2.05;100.00;99827.22;5073522;28;20124;-72
2023/03/07 04:23:09;;;;;;;9.00;1.20;;;;;;;2.03;100.00;99826.47;5073390;28;20480;-71
2023/03/07 04:25:34;;;;;;;8.15;1.15;;;;;;;1.97;100.00;99827.75;5073901;28;20029;-72
2023/03/07 04:28:00;;;;;;;6.78;1.38;;;;;;;1.93;100.00;99826.28;5073256;28;20032;-72
2023/03/07 04:30:25;;;;;;;5.47;1.17;;;;;;;1.89;100.00;99822.19;5055435;28;20123;-71
2023/03/07 04:32:51;;;;;;;14.45;1.52;;;;;;;1.85;100.00;99821.59;5073150;28;20038;-72
2023/03/07 04:35:16;;;;;;;6.18;1.10;;;;;;;1.83;100.00;99812.13;5073373;28;20426;-72
2023/03/07 04:37:42;;;;;;;3.90;0.70;;;;;;;1.81;100.00;99811.38;5073285;28;20068;-72
2023/03/07 04:40:09;;;;;;;4.32;1.00;;;;;;;1.79;100.00;99814.13;5072879;28;20043;-73
2023/03/07 04:42:34;;;;;;;10.23;1.45;;;;;;;1.79;100.00;99819.38;5055337;28;20081;-71
2023/03/07 04:44:59;;;;;;;8.15;1.13;;;;;;;1.79;100.00;99813.28;5073024;28;20033;-72
2023/03/07 04:47:25;;;;;;;4.88;0.88;;;;;;;1.76;100.00;99807.31;5072857;28;20116;-71
2023/03/07 04:49:50;;;;;;;5.00;1.10;;;;;;;1.75;100.00;99813.50;5072928;28;20039;-72
2023/03/07 04:52:16;;;;;;;7.10;1.10;;;;;;;1.73;100.00;99806.69;5073224;28;20354;-72
2023/03/07 04:54:41;;;;;;;6.03;0.75;;;;;;;1.69;100.00;99813.94;5073121;28;20028;-71
2023/03/07 04:57:07;;;;;;;5.20;0.75;;;;;;;1.65;100.00;99807.22;5054693;28;20064;-72
2023/03/07 04:59:35;;;;;;;9.32;1.33;;;;;;;1.63;100.00;99810.91;5072783;28;20078;-71
2023/03/07 05:02:00;;;;;;;8.23;1.48;;;;;;;1.58;100.00;99814.69;5072798;28;20033;-71
2023/03/07 05:04:25;;;;;;;7.22;0.90;;;;;;;1.52;100.00;99817.75;5072939;28;20033;-71
2023/03/07 05:06:51;;;;;;;2.70;0.80;;;;;;;1.47;100.00;99821.63;5054685;28;20029;-71
2023/03/07 05:09:16;;;;;;;3.47;0.75;;;;;;;1.45;100.00;99818.25;5073445;28;20045;-71
2023/03/07 05:11:42;;;;;;;8.10;0.95;;;;;;;1.41;100.00;99828.13;5072513;28;20036;-70
2023/03/07 05:14:07;;;;;;;5.63;0.85;;;;;;;1.35;100.00;99831.16;5072489;28;20036;-71
2023/03/07 05:16:32;;;;;;;5.07;0.90;;;;;;;1.30;100.00;99834.09;5072715;28;20029;-71
2023/03/07 05:18:59;;;;;;;6.43;1.17;;;;;;;1.28;100.00;99840.38;5075038;28;20024;-72
2023/03/07 05:21:25;;;;;;;7.47;1.30;;;;;;;1.25;100.00;99841.41;5077177;28;20368;-72
2023/03/07 05:23:50;;;;;;;8.30;1.13;;;;;;;1.19;100.00;99839.22;5076775;28;20082;-69
2023/03/07 05:26:15;;;;;;;9.70;2.13;;;;;;;1.12;100.00;99841.44;5077075;28;20065;-71
2023/03/07 05:28:41;;;;;;;4.88;1.00;;;;;;;1.05;100.00;99845.41;5076594;28;20464;-72
2023/03/07 05:31:06;;;;;;;6.47;1.00;;;;;;;0.95;100.00;99833.84;5076815;28;20131;-72
2023/03/07 05:33:31;;;;;;;4.57;1.10;;;;;;;0.85;100.00;99841.47;5076284;28;20040;-71
2023/03/07 05:36:00;;;;;;;8.85;1.08;;;;;;;0.74;100.00;99842.19;5076462;28;20036;-72
2023/03/07 05:38:26;;;;;;;3.90;0.88;;;;;;;0.68;100.00;99838.16;5076492;28;20063;-72
2023/03/07 05:40:51;;;;;;;2.33;1.00;;;;;;;0.63;100.00;99839.44;5076312;28;20477;-72
2023/03/07 05:43:17;;;;;;;6.22;0.90;;;;;;;0.54;100.00;99838.25;5076428;28;20056;-71
2023/03/07 05:45:42;;;;;;;2.33;1.00;;;;;;;0.48;100.00;99846.50;5076585;28;20387;-71
2023/03/07 05:48:07;;;;;;;4.38;1.10;;;;;;;0.41;100.00;99832.13;5076272;28;20477;-71
2023/03/07 05:50:33;;;;;;;1.95;0.95;;;;;;;0.37;100.00;99841.09;5076270;28;20369;-71
2023/03/07 05:52:58;;;;;;;6.20;1.40;;;;;;;0.33;100.00;99836.06;5075936;28;20043;-72
2023/03/07 05:55:23;;;;;;;1.55;1.00;;;;;;;0.33;100.00;99835.25;5076550;28;20102;-72
2023/03/07 05:57:49;;;;;;;4.55;0.98;;;;;;;0.36;100.00;99835.03;5076035;28;20487;-72
2023/03/07 06:00:15;;;;;;;3.08;0.98;;;;;;;0.39;100.00;99840.06;5075965;28;20116;-72
2023/03/07 06:02:41;;;;;;;7.72;1.00;;;;;;;0.40;100.00;99839.13;5058312;28;20120;-71
2023/03/07 06:05:07;;;;;;;3.83;0.75;;;;;;;0.40;100.00;99833.06;5075797;28;20094;-71
2023/03/07 06:07:32;;;;;;;5.55;1.08;;;;;;;0.38;100.00;99838.38;5076233;28;20056;-71
2023/03/07 06:09:57;;;;;;;6.00;1.02;;;;;;;0.38;100.00;99843.63;5075908;28;20326;-71
2023/03/07 06:12:22;;;;;;;4.35;1.55;;;;;;;0.36;100.00;99835.03;5075827;28;20032;-72
2023/03/07 06:14:48;;;;;;;6.53;1.25;;;;;;;0.37;100.00;99841.09;5075814;28;20036;-71
2023/03/07 06:17:13;;;;;;;4.30;1.15;;;;;;;0.37;100.00;99846.34;5075740;28;20033;-71
2023/03/07 06:19:39;;;;;;;3.05;0.80;;;;;;;0.38;100.00;99845.41;5075826;28;20111;-71
2023/03/07 06:22:04;;;;;;;6.85;1.00;;;;;;;0.36;100.00;99845.50;5075310;28;20538;-71
2023/03/07 06:24:29;;;;;;;6.95;1.27;;;;;;;0.35;100.00;99844.66;5075687;28;20083;-72
2023/03/07 06:26:55;;;;;;;3.70;1.02;;;;;;;0.38;100.00;99842.78;5075603;28;20599;-71
2023/03/07 06:29:20;;;;;;;6.97;0.82;;;;;;;0.36;100.00;99837.66;5076024;28;20365;-78
2023/03/07 06:31:46;;;;;;;6.20;1.25;;;;;;;0.35;100.00;99844.66;5041203;28;20036;-71
2023/03/07 06:34:11;;;;;;;4.22;0.80;;;;;;;0.37;100.00;99846.34;5075435;28;20457;-70
2023/03/07 06:36:39;;;;;;;2.75;0.80;;;;;;;0.37;100.00;99841.09;5075422;28;20162;-71
2023/03/07 06:39:04;;;;;;;2.83;0.88;;;;;;;0.38;100.00;99842.78;5075359;28;20048;-71
2023/03/07 06:41:30;;;;;;;5.47;1.17;;;;;;;0.37;100.00;99846.34;5056746;28;20153;-70
2023/03/07 06:43:55;;;;;;;5.05;1.35;;;;;;;0.37;100.00;99844.56;5057311;28;20115;-71
2023/03/07 06:46:21;;;;;;;1.92;0.80;;;;;;;0.34;100.00;99845.59;5074934;28;20050;-71
2023/03/07 06:48:47;;;;;;;1.70;0.70;;;;;;;0.34;100.00;99842.13;5074797;28;20388;-71
2023/03/07 06:51:12;;;;;;;4.20;0.80;;;;;;;0.35;100.00;99842.03;5074790;28;20059;-71
2023/03/07 06:53:37;;;;;;;3.53;0.90;;;;;;;0.34;100.00;99848.22;5074751;28;20107;-70
2023/03/07 06:56:03;;;;;;;8.48;1.33;;;;;;;0.36;100.00;99842.91;5074847;28;20043;-72
2023/03/07 06:58:28;;;;;;;1.35;0.75;;;;;;;0.37;100.00;99846.34;5074627;28;20374;-71
2023/03/07 07:00:54;;;;;;;6.13;1.30;;;;;;;0.38;100.00;99845.41;5074522;28;20124;-71
2023/03/07 07:03:19;;;;;;;4.68;1.20;;;;;;;0.40;100.00;99841.72;5074798;28;20059;-71
2023/03/07 07:05:45;;;;;;;7.57;1.23;;;;;;;0.39;100.00;99850.53;5074440;28;20150;-71
2023/03/07 07:08:10;;;;;;;2.92;0.73;;;;;;;0.38;100.00;99841.00;5073848;28;20057;-71
2023/03/07 07:10:36;;;;;;;3.33;0.82;;;;;;;0.35;100.00;99849.88;5074460;28;20111;-71
2023/03/07 07:13:02;;;;;;;4.72;0.90;;;;;;;0.34;100.00;99850.84;5074113;28;20070;-72
2023/03/07 07:15:27;;;;;;;7.68;1.65;;;;;;;0.32;100.00;99851.88;5073918;28;20044;-72
2023/03/07 07:17:53;;;;;;;8.35;1.35;;;;;;;0.32;100.00;99857.09;5074519;28;20184;-71
2023/03/07 07:20:18;;;;;;;10.40;0.90;;;;;;;0.31;100.00;99856.28;5074034;28;20029;-72
2023/03/07 07:22:44;;;;;;;5.40;0.68;;;;;;;0.31;100.00;99853.66;5074994;28;20045;-71
2023/03/07 07:25:09;;;;;;;7.80;1.50;;;;;;;0.29;100.00;99857.28;5074250;28;20066;-71
2023/03/07 07:27:35;;;;;;;4.38;0.80;;;;;;;0.29;100.00;99865.16;5056828;28;20029;-71
2023/03/07 07:30:02;;;;;;;3.90;1.10;;;;;;;0.28;100.00;99866.06;5074028;28;20123;-71
2023/03/07 07:32:27;;;;;;;2.10;0.77;;;;;;;0.29;100.00;99870.38;5074201;28;20074;-72
2023/03/07 07:34:53;;;;;;;5.55;0.90;;;;;;;0.29;100.00;99868.59;5074005;28;20465;-72
2023/03/07 07:37:18;;;;;;;7.43;0.90;;;;;;;0.29;100.00;99871.22;5073762;28;20035;-71
2023/03/07 07:39:44;;;;;;;7.15;0.93;;;;;;;0.30;100.00;99864.19;5055887;28;20032;-71
2023/03/07 07:42:10;;;;;;;5.75;0.88;;;;;;;0.32;100.00;99871.00;5073786;28;20119;-71
2023/03/07 07:44:35;;;;;;;5.18;1.10;;;;;;;0.39;100.00;99873.25;5073494;28;20489;-71
2023/03/07 07:47:01;;;;;;;2.05;0.80;;;;;;;0.41;100.00;99872.22;5055941;28;20071;-71
2023/03/07 07:49:26;;;;;;;4.32;1.08;;;;;;;0.44;100.00;99869.41;5073556;28;20117;-71
2023/03/07 07:51:52;;;;;;;3.95;0.80;;;;;;;0.47;100.00;99871.00;5073569;28;20032;-71
2023/03/07 07:54:17;;;;;;;7.53;1.55;;;;;;;0.51;100.00;99875.09;5073099;28;20052;-71
2023/03/07 07:56:42;;;;;;;4.40;1.08;;;;;;;0.55;100.00;99879.16;5073512;28;20032;-71
2023/03/07 07:59:08;;;;;;;5.45;0.93;;;;;;;0.60;100.00;99879.75;5073346;28;20133;-71
2023/03/07 08:01:33;;;;;;;4.28;0.95;;;;;;;0.62;100.00;99883.09;5072996;28;20040;-71
2023/03/07 08:03:59;;;;;;;8.90;1.05;;;;;;;0.64;100.00;99881.22;5073721;28;20039;-70
2023/03/07 08:06:26;;;;;;;4.82;0.80;;;;;;;0.67;100.00;99880.16;5073200;28;20033;-69
2023/03/07 08:08:52;;;;;;;6.25;1.23;;;;;;;0.67;100.00;99882.78;5073529;28;20402;-71
2023/03/07 08:11:18;;;;;;;3.92;1.13;;;;;;;0.72;100.00;99878.09;5073213;28;20036;-70
2023/03/07 08:13:44;;;;;;;3.97;1.00;;;;;;;0.75;100.00;99882.28;5072920;28;20035;-71
2023/03/07 08:16:18;;;;;;;7.05;1.40;;;;;;;0.78;100.00;99882.94;5073359;28;20032;-71
2023/03/07 08:18:48;;;;;;;5.07;0.90;;;;;;;0.84;100.00;99893.00;5073275;28;20032;-71
2023/03/07 08:21:14;;;;;;;6.97;2.33;;;;;;;0.85;100.00;99879.00;5055164;28;20056;-71
2023/03/07 08:23:39;;;;;;;3.88;0.95;;;;;;;0.88;100.00;99884.03;5073012;28;20125;-71
2023/03/07 08:26:07;;;;;;;4.72;1.00;;;;;;;0.91;100.00;99887.38;5073076;28;20043;-72
2023/03/07 08:28:33;;;;;;;8.27;1.20;;;;;;;0.94;100.00;99880.16;5072886;28;20028;-71
2023/03/07 08:31:09;;;;;;;4.75;0.90;;;;;;;0.95;100.00;99873.97;5055005;28;20039;-71
2023/03/07 08:33:34;;;;;;;11.13;1.10;;;;;;;1.01;100.00;99875.34;5073545;28;20025;-71
2023/03/07 08:35:59;;;;;;;3.55;0.70;;;;;;;1.09;100.00;99880.94;5072784;28;20039;-71
2023/03/07 08:38:25;;;;;;;9.00;0.90;;;;;;;1.17;100.00;99869.94;5072816;28;20085;-71
2023/03/07 08:40:51;;;;;;;6.60;0.90;;;;;;;1.24;100.00;99871.22;5072703;28;20432;-71
2023/03/07 08:43:16;;;;;;;3.45;1.05;;;;;;;1.33;100.00;99874.97;5073461;28;20096;-72
2023/03/07 08:45:41;;;;;;;5.70;0.95;;;;;;;1.34;100.00;99874.88;5073422;28;20111;-71
2023/03/07 08:48:08;;;;;;;1.30;0.60;;;;;;;1.38;100.00;99875.50;5072594;28;20497;-71
2023/03/07 08:50:34;;;;;;;10.25;1.10;;;;;;;1.40;100.00;99874.47;5072697;28;20033;-71
2023/03/07 08:52:59;;;;;;;6.35;0.88;;;;;;;1.48;100.00;99878.34;5071802;28;20165;-71
2023/03/07 08:55:25;;;;;;;3.22;1.00;;;;;;;1.54;100.00;99881.41;5055104;28;20112;-71
2023/03/07 08:57:50;;;;;;;2.70;1.08;;;;;;;1.56;100.00;99876.06;5072352;28;20035;-71
2023/03/07 09:00:16;;;;;;;6.55;1.15;;;;;;;1.62;100.00;99875.63;5072518;28;20420;-71
2023/03/07 09:02:42;;;;;;;5.72;1.08;;;;;;;1.68;100.00;99871.75;5072556;28;20105;-71
2023/03/07 09:05:08;;;;;;;2.60;0.80;;;;;;;1.71;100.00;99871.53;5072383;28;20464;-72
2023/03/07 09:07:33;;;;;;;5.40;0.80;;;;;;;1.80;100.00;99870.91;5072618;28;20362;-72
2023/03/07 09:09:58;;;;;;;4.15;0.77;;;;;;;1.92;100.00;99874.44;5072550;28;20041;-72
2023/03/07 09:12:24;;;;;;;4.30;0.90;;;;;;;2.03;100.00;99865.81;5054953;28;20047;-71
2023/03/07 09:14:52;;;;;;;3.25;0.85;;;;;;;2.02;100.00;99865.00;5072778;28;20029;-70
2023/03/07 09:17:18;;;;;;;2.97;0.85;;;;;;;2.09;100.00;99868.00;5072784;28;20078;-71
2023/03/07 09:19:43;;;;;;;8.30;0.88;;;;;;;2.15;100.00;99866.75;5072596;28;20032;-70
2023/03/07 09:22:09;;;;;;;3.22;0.80;;;;;;;2.16;100.00;99873.69;5072376;28;20182;-71
2023/03/07 09:24:34;;;;;;;2.92;0.82;;;;;;;2.16;100.00;99861.38;5073230;28;20458;-70
2023/03/07 09:26:59;;;;;;;3.80;0.95;;;;;;;2.16;100.00;99873.69;5072770;28;20080;-71
2023/03/07 09:29:25;;;;;;;3.33;0.68;;;;;;;2.19;100.00;99879.53;5073170;28;20043;-70
2023/03/07 09:31:50;;;;;;;1.70;0.63;;;;;;;2.22;100.00;99876.69;5072543;28;20120;-70
2023/03/07 09:34:16;;;;;;;7.45;1.25;;;;;;;2.20;100.00;99875.13;5073065;28;20454;-70
2023/03/07 09:36:41;;;;;;;4.75;1.10;;;;;;;2.23;100.00;99875.75;5072468;28;20122;-70
2023/03/07 09:39:07;;;;;;;9.05;1.15;;;;;;;2.32;100.00;99879.50;5072935;28;20029;-70
2023/03/07 09:41:32;;;;;;;5.63;1.02;;;;;;;2.39;100.00;99882.53;5072580;28;20457;-71
2023/03/07 09:44:13;;;;;;;3.13;0.80;;;;;;;2.39;100.00;99887.78;5054975;28;20032;-70
2023/03/07 09:46:41;;;;;;;5.18;0.70;;;;;;;2.32;100.00;99886.56;5072839;28;20029;-70
2023/03/07 09:49:20;;;;;;;5.25;1.08;;;;;;;2.27;100.00;99881.63;5072990;28;20024;-71
2023/03/07 09:51:50;;;;;;;2.88;0.82;;;;;;;2.26;100.00;99882.56;5072463;28;20024;-71
2023/03/07 09:54:26;;;;;;;6.72;0.60;;;;;;;2.13;100.00;99889.63;5072733;28;20027;-71
2023/03/07 09:56:59;;;;;;;1.88;0.65;;;;;;;2.08;100.00;99893.41;5054484;28;20028;-71
2023/03/07 09:59:33;;;;;;;5.95;0.90;;;;;;;2.10;100.00;99895.94;5072062;28;20057;-71
2023/03/07 10:02:22;;;;;;;6.65;0.88;;;;;;;2.06;100.00;99897.94;5072767;28;20082;-71
2023/03/07 10:05:00;;;;;;;1.90;0.60;;;;;;;2.11;100.00;99895.00;5074023;28;20024;-70
2023/03/07 10:07:26;;;;;;;1.92;0.45;;;;;;;2.13;100.00;99894.88;5076392;28;20045;-69
2023/03/07 10:10:01;;;;;;;4.00;1.10;;;;;;;2.13;100.00;99905.38;5076355;28;20130;-70
2023/03/07 10:12:47;;;;;;;6.35;1.02;;;;;;;1.98;100.00;99896.81;5075704;28;20429;-69
2023/03/07 10:15:30;;;;;;;4.47;0.68;;;;;;;1.95;100.00;99892.59;5075809;28;20082;-69
2023/03/07 10:18:21;;;;;;;2.47;0.68;;;;;;;1.96;100.00;99896.91;5057893;28;20028;-70
2023/03/07 10:20:51;;;;;;;2.72;0.77;;;;;;;1.96;100.00;99894.28;5075313;28;20032;-70
2023/03/07 10:23:52;;;;;;;8.05;1.23;;;;;;;1.98;100.00;99897.63;5075751;28;20029;-70
2023/03/07 10:26:47;;;;;;;1.00;0.47;;;;;;;1.86;100.00;99907.19;5030758;28;20050;-70
2023/03/07 10:29:16;;;;;;;5.45;0.98;;;;;;;1.75;100.00;99907.09;5075845;28;20072;-70
2023/03/07 10:31:47;;;;;;;4.55;0.80;;;;;;;1.67;100.00;99904.16;5076137;28;20410;-72
2023/03/07 10:34:24;;;;;;;4.25;0.77;;;;;;;1.73;100.00;99908.97;5075397;28;20526;-71
2023/03/07 10:36:55;;;;;;;4.85;1.23;;;;;;;1.73;100.00;99904.59;5075169;28;20545;-71
2023/03/07 10:39:33;;;;;;;3.63;0.73;;;;;;;1.64;100.00;99912.22;5075631;28;20032;-72
2023/03/07 10:41:58;;;;;;;6.28;1.00;;;;;;;1.55;100.00;99903.19;5075327;28;20035;-70
2023/03/07 10:44:30;;;;;;;6.88;0.70;;;;;;;1.52;100.00;99911.28;5075366;28;20112;-69
2023/03/07 10:46:58;;;;;;;3.75;0.85;;;;;;;1.54;100.00;99905.00;5074961;28;20033;-73
2023/03/07 10:49:44;;;;;;;7.85;1.25;;;;;;;1.55;100.00;99911.06;5075377;28;20025;-72
2023/03/07 10:52:28;;;;;;;8.38;0.98;;;;;;;1.60;100.00;99901.13;5074934;28;20107;-70
2023/03/07 10:54:54;;;;;;;6.18;1.10;;;;;;;1.63;100.00;99900.91;5074678;28;20032;-71
2023/03/07 10:57:26;;;;;;;1.73;0.80;;;;;;;1.67;100.00;99906.78;5074748;28;20052;-70
2023/03/07 10:59:52;;;;;;;2.97;0.75;;;;;;;1.70;100.00;99914.44;5075084;28;20039;-74
2023/03/07 11:02:40;;;;;;;5.55;1.05;;;;;;;1.60;100.00;99911.63;5074687;28;20024;-73
2023/03/07 11:05:32;;;;;;;11.30;0.88;;;;;;;1.53;100.00;99912.97;5075145;28;20035;-70
2023/03/07 11:07:59;;;;;;;4.28;1.17;;;;;;;1.51;100.00;99912.25;5056433;28;20484;-70
2023/03/07 11:10:30;;;;;;;3.13;0.85;;;;;;;1.48;100.00;99905.41;5074822;28;20036;-69
2023/03/07 11:12:55;;;;;;;4.40;0.98;;;;;;;1.52;100.00;99912.13;5075453;28;20142;-69
2023/03/07 11:15:23;;;;;;;5.82;1.08;;;;;;;1.60;100.00;99916.84;5074406;28;20120;-69
2023/03/07 11:17:50;;;;;;;4.40;0.88;;;;;;;1.57;100.00;99910.03;5056341;28;20036;-70
2023/03/07 11:20:28;;;;;;;6.20;1.08;;;;;;;1.48;100.00;99904.56;5074087;28;20469;-69
2023/03/07 11:23:22;;;;;;;1.85;1.00;;;;;;;1.42;100.00;99908.44;5074759;28;20449;-69
2023/03/07 11:25:50;;;;;;;3.83;1.23;;;;;;;1.40;100.00;99912.94;5074741;28;20051;-69
2023/03/07 11:28:33;;;;;;;1.77;0.70;;;;;;;1.45;100.00;99923.97;5074655;28;20107;-70
2023/03/07 11:31:34;;;;;;;10.07;1.13;;;;;;;1.48;100.00;99921.16;5074217;28;20408;-70
2023/03/07 11:34:27;;;;;;;1.63;0.53;;;;;;;1.37;100.00;99929.75;5074403;28;20060;-69
2023/03/07 11:37:07;;;;;;;6.03;0.70;;;;;;;1.39;100.00;99929.63;5074145;28;20263;-69